createdAt,value
2019-01-25T00:01:30.690Z,-5.26
2019-01-25T00:06:37.727Z,-5.24
2019-01-25T00:09:08.705Z,-5.28
2019-01-25T00:11:37.902Z,-5.28
2019-01-25T00:14:08.423Z,-5.29
2019-01-25T00:16:39.511Z,-5.31
2019-01-25T00:19:09.612Z,-5.32
2019-01-25T00:21:39.035Z,-5.32
2019-01-25T00:24:10.149Z,-5.33
2019-01-25T00:26:43.660Z,-5.36
2019-01-25T00:29:12.997Z,-5.45
2019-01-25T00:31:43.655Z,-5.54
2019-01-25T00:34:13.191Z,-5.63
2019-01-25T00:36:42.408Z,-5.69
2019-01-25T00:39:11.844Z,-5.67
2019-01-25T00:41:42.199Z,-5.71
2019-01-25T00:44:12.852Z,-5.75
2019-01-25T00:46:43.751Z,-5.80
2019-01-25T00:49:14.756Z,-5.84
2019-01-25T00:51:43.937Z,-5.84
2019-01-25T00:54:13.251Z,-5.83
2019-01-25T00:56:42.745Z,-5.84
2019-01-25T00:59:14.570Z,-5.87
2019-01-25T01:01:43.758Z,-5.89
2019-01-25T01:04:12.973Z,-5.93
2019-01-25T01:06:42.235Z,-5.95
2019-01-25T01:09:11.734Z,-5.96
2019-01-25T01:11:40.947Z,-5.97
2019-01-25T01:14:10.195Z,-5.98
2019-01-25T01:16:39.427Z,-5.98
2019-01-25T01:19:10.659Z,-5.98
2019-01-25T01:21:39.978Z,-5.97
2019-01-25T01:24:09.325Z,-5.96
2019-01-25T01:26:38.829Z,-5.96
2019-01-25T01:29:08.094Z,-5.97
2019-01-25T01:31:37.293Z,-5.96
2019-01-25T01:34:06.511Z,-5.97
2019-01-25T01:36:35.744Z,-5.92
2019-01-25T01:39:07.175Z,-5.91
2019-01-25T01:41:36.993Z,-5.88
2019-01-25T01:44:06.278Z,-5.85
2019-01-25T01:46:37.523Z,-5.83
2019-01-25T01:49:09.266Z,-5.83
2019-01-25T01:51:38.498Z,-5.82
2019-01-25T01:54:07.766Z,-5.80
2019-01-25T01:56:37.009Z,-5.78
2019-01-25T01:59:06.253Z,-5.79
2019-01-25T02:01:37.131Z,-5.82
2019-01-25T02:04:06.160Z,-5.83
2019-01-25T02:06:35.215Z,-5.82
2019-01-25T02:09:05.913Z,-5.81
2019-01-25T02:11:35.421Z,-5.80
2019-01-25T02:14:04.750Z,-5.77
2019-01-25T02:16:33.979Z,-5.79
2019-01-25T02:19:03.224Z,-5.79
2019-01-25T02:21:32.504Z,-5.78
2019-01-25T02:24:01.681Z,-5.77
2019-01-25T02:26:30.948Z,-5.76
2019-01-25T02:29:00.190Z,-5.80
2019-01-25T02:31:29.383Z,-5.82
2019-01-25T02:33:58.596Z,-5.80
2019-01-25T02:36:27.822Z,-5.79
2019-01-25T02:38:57.002Z,-5.76
2019-01-25T02:41:26.212Z,-5.74
2019-01-25T02:43:55.434Z,-5.75
2019-01-25T02:46:24.616Z,-5.73
2019-01-25T02:48:53.805Z,-5.70
2019-01-25T02:51:23.061Z,-5.69
2019-01-25T02:53:52.286Z,-5.69
2019-01-25T02:56:21.485Z,-5.69
2019-01-25T02:58:50.731Z,-5.66
2019-01-25T03:01:19.946Z,-5.60
2019-01-25T03:03:49.199Z,-5.52
2019-01-25T03:06:18.667Z,-5.51
2019-01-25T03:08:47.880Z,-5.48
2019-01-25T03:11:17.357Z,-5.43
2019-01-25T03:13:46.768Z,-5.38
2019-01-25T03:16:15.944Z,-5.35
2019-01-25T03:18:45.118Z,-5.31
2019-01-25T03:21:14.378Z,-5.31
2019-01-25T03:23:43.577Z,-5.30
2019-01-25T03:26:12.811Z,-5.31
2019-01-25T03:28:42.188Z,-5.31
2019-01-25T03:31:11.399Z,-5.29
2019-01-25T03:33:40.588Z,-5.24
2019-01-25T03:36:10.818Z,-5.22
2019-01-25T03:38:40.019Z,-5.25
2019-01-25T03:41:09.209Z,-5.22
2019-01-25T03:43:38.461Z,-5.17
2019-01-25T03:46:07.671Z,-5.14
2019-01-25T03:48:36.865Z,-5.15
2019-01-25T03:51:06.088Z,-5.11
2019-01-25T03:53:35.305Z,-5.08
2019-01-25T03:56:04.600Z,-5.09
2019-01-25T03:58:33.902Z,-5.12
2019-01-25T04:01:03.106Z,-5.10
2019-01-25T04:03:32.337Z,-5.09
2019-01-25T04:06:01.576Z,-5.06
2019-01-25T04:08:30.781Z,-5.02
2019-01-25T04:11:03.774Z,-5.03
2019-01-25T04:13:30.964Z,-4.99
2019-01-25T04:16:00.410Z,-4.94
2019-01-25T04:18:29.617Z,-4.92
2019-01-25T04:20:58.868Z,-4.90
2019-01-25T04:23:28.049Z,-4.87
2019-01-25T04:25:57.320Z,-4.84
2019-01-25T04:28:26.598Z,-4.82
2019-01-25T04:30:55.931Z,-4.85
2019-01-25T04:33:25.134Z,-4.83
2019-01-25T04:35:54.387Z,-4.84
2019-01-25T04:38:23.993Z,-4.84
2019-01-25T04:40:54.645Z,-4.84
2019-01-25T04:43:23.892Z,-4.82
2019-01-25T04:45:53.124Z,-4.82
2019-01-25T04:48:22.349Z,-4.81
2019-01-25T04:50:51.561Z,-4.77
2019-01-25T04:53:20.749Z,-4.75
2019-01-25T04:55:49.974Z,-4.75
2019-01-25T04:58:19.873Z,-4.76
2019-01-25T05:00:49.547Z,-4.75
2019-01-25T05:03:18.907Z,-4.73
2019-01-25T05:05:48.328Z,-4.72
2019-01-25T05:08:21.380Z,-4.68
2019-01-25T05:10:50.600Z,-4.67
2019-01-25T05:13:19.936Z,-4.63
2019-01-25T05:15:49.371Z,-4.61
2019-01-25T05:18:18.741Z,-4.59
2019-01-25T05:20:47.992Z,-4.57
2019-01-25T05:23:17.249Z,-4.55
2019-01-25T05:25:46.415Z,-4.52
2019-01-25T05:28:17.649Z,-4.52
2019-01-25T05:31:04.886Z,-4.51
2019-01-25T05:33:34.210Z,-4.49
2019-01-25T05:36:03.429Z,-4.45
2019-01-25T05:38:32.681Z,-4.43
2019-01-25T05:41:01.917Z,-4.38
2019-01-25T05:43:42.085Z,-4.34
2019-01-25T05:46:11.918Z,-4.31
2019-01-25T05:48:41.131Z,-4.32
2019-01-25T05:51:10.332Z,-4.30
2019-01-25T05:53:40.040Z,-4.29
2019-01-25T05:56:09.298Z,-4.31
2019-01-25T05:58:38.523Z,-4.29
2019-01-25T06:01:07.764Z,-4.26
2019-01-25T06:03:37.026Z,-4.25
2019-01-25T06:06:07.523Z,-4.24
2019-01-25T06:08:43.750Z,-4.22
2019-01-25T06:11:14.782Z,-4.22
2019-01-25T06:13:45.925Z,-4.19
2019-01-25T06:16:16.264Z,-4.16
2019-01-25T06:18:45.602Z,-4.11
2019-01-25T06:21:15.357Z,-4.08
2019-01-25T06:23:44.609Z,-4.07
2019-01-25T06:26:14.201Z,-4.03
2019-01-25T06:28:43.448Z,-4.00
2019-01-25T06:31:14.304Z,-3.97
2019-01-25T06:33:43.508Z,-3.95
2019-01-25T06:36:12.987Z,-3.93
2019-01-25T06:38:42.189Z,-3.92
2019-01-25T06:41:11.398Z,-3.89
2019-01-25T06:43:40.991Z,-3.87
2019-01-25T06:46:10.198Z,-3.83
2019-01-25T06:48:39.444Z,-3.82
2019-01-25T06:51:08.714Z,-3.80
2019-01-25T06:53:37.926Z,-3.80
2019-01-25T06:56:09.717Z,-3.78
2019-01-25T06:58:51.202Z,-3.77
2019-01-25T07:01:51.910Z,-3.74
2019-01-25T07:04:21.147Z,-3.71
2019-01-25T07:06:50.364Z,-3.72
2019-01-25T07:09:19.674Z,-3.70
2019-01-25T07:11:51.678Z,-3.63
2019-01-25T07:14:19.896Z,-3.63
2019-01-25T07:16:49.118Z,-3.64
2019-01-25T07:19:18.539Z,-3.65
2019-01-25T07:21:47.763Z,-3.67
2019-01-25T07:24:16.956Z,-3.65
2019-01-25T07:26:46.218Z,-3.62
2019-01-25T07:29:15.435Z,-3.62
2019-01-25T07:31:46.276Z,-3.60
2019-01-25T07:34:15.647Z,-3.60
2019-01-25T07:36:44.848Z,-3.56
2019-01-25T07:39:24.109Z,-3.56
2019-01-25T07:41:59.216Z,-3.54
2019-01-25T07:44:24.302Z,-3.47
2019-01-25T07:46:53.542Z,-3.42
2019-01-25T07:49:22.736Z,-3.38
2019-01-25T07:51:51.952Z,-3.36
2019-01-25T07:54:21.361Z,-3.35
2019-01-25T07:56:50.525Z,-3.33
2019-01-25T07:59:19.892Z,-3.32
2019-01-25T08:01:49.166Z,-3.28
2019-01-25T08:04:18.671Z,-3.25
2019-01-25T08:06:47.902Z,-3.18
2019-01-25T08:09:17.098Z,-3.14
2019-01-25T08:11:46.328Z,-3.08
2019-01-25T08:14:15.520Z,-3.02
2019-01-25T08:16:45.057Z,-2.94
2019-01-25T08:19:14.378Z,-2.88
2019-01-25T08:21:44.238Z,-2.83
2019-01-25T08:24:13.481Z,-2.76
2019-01-25T08:26:42.743Z,-2.71
2019-01-25T08:29:11.951Z,-2.66
2019-01-25T08:31:41.282Z,-2.60
2019-01-25T08:34:10.545Z,-2.54
2019-01-25T08:36:41.410Z,-2.50
2019-01-25T08:39:11.318Z,-2.44
2019-01-25T08:41:40.638Z,-2.43
2019-01-25T08:44:09.867Z,-2.41
2019-01-25T08:46:39.098Z,-2.38
2019-01-25T08:49:09.354Z,-2.64
2019-01-25T08:51:38.789Z,-2.35
2019-01-25T08:54:08.056Z,-2.33
2019-01-25T08:56:37.324Z,-2.31
2019-01-25T08:59:06.553Z,-2.28
2019-01-25T09:01:35.919Z,-2.24
2019-01-25T09:04:05.116Z,-2.22
2019-01-25T09:06:34.340Z,-2.20
2019-01-25T09:09:05.830Z,-2.17
2019-01-25T09:11:35.065Z,-2.15
2019-01-25T09:14:04.349Z,-2.13
2019-01-25T09:16:33.597Z,-2.08
2019-01-25T09:19:02.858Z,-2.04
2019-01-25T09:21:32.067Z,-1.97
2019-01-25T09:24:01.409Z,-1.91
2019-01-25T09:26:30.621Z,-1.88
2019-01-25T09:28:59.830Z,-1.88
2019-01-25T09:31:29.085Z,-1.88
2019-01-25T09:33:58.289Z,-1.87
2019-01-25T09:36:27.529Z,-1.84
2019-01-25T09:38:56.749Z,-1.81
2019-01-25T09:41:26.026Z,-1.76
2019-01-25T09:43:55.354Z,-1.68
2019-01-25T09:46:24.597Z,-1.61
2019-01-25T09:48:54.147Z,-1.53
2019-01-25T09:51:23.374Z,-1.45
2019-01-25T09:53:52.609Z,-1.37
2019-01-25T09:56:21.846Z,-1.29
2019-01-25T09:58:53.973Z,-1.20
2019-01-25T10:01:23.984Z,-1.11
2019-01-25T10:03:53.210Z,-1.05
2019-01-25T10:06:22.413Z,-1.04
2019-01-25T10:08:51.694Z,-1.03
2019-01-25T10:11:21.219Z,-1.00
2019-01-25T10:13:50.429Z,-0.95
2019-01-25T10:16:19.699Z,-0.92
2019-01-25T10:18:48.902Z,-0.92
2019-01-25T10:21:18.097Z,-0.90
2019-01-25T10:23:47.326Z,-0.87
2019-01-25T10:26:16.648Z,-0.82
2019-01-25T10:28:45.863Z,-0.72
2019-01-25T10:31:15.102Z,-0.66
2019-01-25T10:33:44.407Z,-0.68
2019-01-25T10:36:13.687Z,-0.64
2019-01-25T10:38:42.924Z,-0.58
2019-01-25T10:41:12.159Z,-0.53
2019-01-25T10:43:41.369Z,-0.49
2019-01-25T10:46:10.726Z,-0.50
2019-01-25T10:48:40.221Z,-0.50
2019-01-25T10:51:09.416Z,-0.45
2019-01-25T10:53:38.676Z,-0.42
2019-01-25T10:56:07.903Z,-0.40
2019-01-25T10:58:37.490Z,-0.39
2019-01-25T11:01:06.929Z,-0.44
2019-01-25T11:03:36.130Z,-0.48
2019-01-25T11:06:06.063Z,-0.46
2019-01-25T11:08:36.283Z,-0.52
2019-01-25T11:11:05.502Z,-0.55
2019-01-25T11:13:34.719Z,-0.57
2019-01-25T11:16:04.065Z,-0.57
2019-01-25T11:18:33.278Z,-0.51
2019-01-25T11:21:02.511Z,-0.49
2019-01-25T11:23:31.746Z,-0.54
2019-01-25T11:26:00.973Z,-0.60
2019-01-25T11:28:30.426Z,-0.67
2019-01-25T11:30:59.764Z,-0.75
2019-01-25T11:33:28.963Z,-0.81
2019-01-25T11:35:58.173Z,-0.78
2019-01-25T11:38:27.395Z,-0.77
2019-01-25T11:40:56.726Z,-0.75
2019-01-25T11:43:25.914Z,-0.74
2019-01-25T11:45:55.203Z,-0.75
2019-01-25T11:48:24.626Z,-0.77
2019-01-25T11:50:53.830Z,-0.79
2019-01-25T11:53:23.130Z,-0.75
2019-01-25T11:55:52.363Z,-0.69
2019-01-25T11:58:21.583Z,-0.71
2019-01-25T12:00:51.534Z,-0.75
2019-01-25T12:03:20.736Z,-0.76
2019-01-25T12:05:49.952Z,-0.74
2019-01-25T12:08:19.279Z,-0.64
2019-01-25T12:10:48.524Z,-0.59
2019-01-25T12:13:17.756Z,-0.62
2019-01-25T12:15:47.027Z,-0.57
2019-01-25T12:18:16.248Z,-0.55
2019-01-25T12:20:45.545Z,-0.41
2019-01-25T12:23:14.825Z,-0.28
2019-01-25T12:25:44.065Z,-0.23
2019-01-25T12:28:13.275Z,-0.24
2019-01-25T12:30:42.826Z,-0.27
2019-01-25T12:33:12.059Z,-0.29
2019-01-25T12:35:43.253Z,-0.37
2019-01-25T12:38:12.679Z,-0.47
2019-01-25T12:40:42.714Z,-0.49
2019-01-25T12:43:12.265Z,-0.48
2019-01-25T12:45:41.540Z,-0.49
2019-01-25T12:48:10.739Z,-0.46
2019-01-25T12:50:49.058Z,-0.46
2019-01-25T12:53:17.404Z,-0.44
2019-01-25T12:55:46.721Z,-0.42
2019-01-25T12:58:16.008Z,-0.41
2019-01-25T13:00:45.402Z,-0.39
2019-01-25T13:03:14.644Z,-0.41
2019-01-25T13:05:43.958Z,-0.43
2019-01-25T13:08:13.276Z,-0.46
2019-01-25T13:10:42.569Z,-0.48
2019-01-25T13:13:11.823Z,-0.51
2019-01-25T13:15:41.028Z,-0.53
2019-01-25T13:18:10.222Z,-0.53
2019-01-25T13:20:39.851Z,-0.54
2019-01-25T13:23:09.289Z,-0.53
2019-01-25T13:25:38.517Z,-0.49
2019-01-25T13:28:07.763Z,-0.46
2019-01-25T13:30:36.984Z,-0.47
2019-01-25T13:33:06.590Z,-0.46
2019-01-25T13:35:35.836Z,-0.45
2019-01-25T13:38:05.877Z,-0.47
2019-01-25T13:40:35.180Z,-0.50
2019-01-25T13:43:04.557Z,-0.49
2019-01-25T13:45:33.758Z,-0.50
2019-01-25T13:48:02.977Z,-0.50
2019-01-25T13:50:32.332Z,-0.51
2019-01-25T13:53:01.614Z,-0.52
2019-01-25T13:55:30.846Z,-0.54
2019-01-25T13:58:00.110Z,-0.57
2019-01-25T14:00:31.365Z,-0.60
2019-01-25T14:03:00.682Z,-0.60
2019-01-25T14:05:29.950Z,-0.59
2019-01-25T14:07:59.497Z,-0.58
2019-01-25T14:10:30.826Z,-0.62
2019-01-25T14:13:00.119Z,-0.66
2019-01-25T14:15:29.435Z,-0.71
2019-01-25T14:17:58.663Z,-0.69
2019-01-25T14:20:29.594Z,-0.72
2019-01-25T14:22:58.803Z,-0.76
2019-01-25T14:25:28.044Z,-0.77
2019-01-25T14:27:57.313Z,-0.79
2019-01-25T14:30:32.590Z,-0.79
2019-01-25T14:33:02.042Z,-0.83
2019-01-25T14:35:31.682Z,-0.82
2019-01-25T14:38:00.889Z,-0.81
2019-01-25T14:40:30.139Z,-0.82
2019-01-25T14:42:59.375Z,-0.82
2019-01-25T14:45:28.924Z,-0.84
2019-01-25T14:47:58.249Z,-0.84
2019-01-25T14:50:28.533Z,-0.86
2019-01-25T14:52:58.191Z,-0.86
2019-01-25T14:55:27.670Z,-0.86
2019-01-25T14:57:57.306Z,-0.88
2019-01-25T15:00:26.516Z,-0.87
2019-01-25T15:02:55.791Z,-0.90
2019-01-25T15:05:25.123Z,-0.91
2019-01-25T15:07:54.345Z,-0.94
2019-01-25T15:10:25.109Z,-0.96
2019-01-25T15:12:57.035Z,-0.97
2019-01-25T15:15:26.542Z,-1.00
2019-01-25T15:17:55.916Z,-1.00
2019-01-25T15:20:29.015Z,-1.02
2019-01-25T15:22:58.275Z,-1.05
2019-01-25T15:25:27.532Z,-1.04
2019-01-25T15:27:56.762Z,-1.06
2019-01-25T15:30:28.378Z,-1.07
2019-01-25T15:32:57.711Z,-1.09
2019-01-25T15:35:27.321Z,-1.10
2019-01-25T15:37:56.635Z,-1.12
2019-01-25T15:40:26.079Z,-1.13
2019-01-25T15:42:55.285Z,-1.14
2019-01-25T15:45:24.627Z,-1.13
2019-01-25T15:47:53.891Z,-1.15
2019-01-25T15:50:31.394Z,-1.15
2019-01-25T15:53:00.641Z,-1.16
2019-01-25T15:55:29.881Z,-1.16
2019-01-25T15:57:59.316Z,-1.16
2019-01-25T16:00:30.105Z,-1.18
2019-01-25T16:02:59.253Z,-1.19
2019-01-25T16:05:28.583Z,-1.20
2019-01-25T16:07:57.838Z,-1.21
2019-01-25T16:10:27.082Z,-1.21
2019-01-25T16:12:56.357Z,-1.23
2019-01-25T16:15:34.720Z,-1.26
2019-01-25T16:18:03.941Z,-1.28
2019-01-25T16:20:33.147Z,-1.34
2019-01-25T16:23:02.429Z,-1.35
2019-01-25T16:25:34.154Z,-1.36
2019-01-25T16:28:03.349Z,-1.37
2019-01-25T16:30:34.842Z,-1.40
2019-01-25T16:33:04.590Z,-1.39
2019-01-25T16:35:33.813Z,-1.39
2019-01-25T16:38:03.157Z,-1.40
2019-01-25T16:40:32.593Z,-1.41
2019-01-25T16:43:01.783Z,-1.44
2019-01-25T16:45:36.652Z,-1.45
2019-01-25T16:48:06.572Z,-1.48
2019-01-25T16:50:36.281Z,-1.47
2019-01-25T16:53:07.163Z,-1.49
2019-01-25T16:55:36.370Z,-1.48
2019-01-25T16:58:07.285Z,-1.66
2019-01-25T17:00:45.019Z,-1.49
2019-01-25T17:03:14.877Z,-1.49
2019-01-25T17:05:44.087Z,-1.52
2019-01-25T17:08:13.512Z,-1.53
2019-01-25T17:10:42.728Z,-1.54
2019-01-25T17:13:11.974Z,-1.55
2019-01-25T17:15:41.173Z,-1.54
2019-01-25T17:18:10.976Z,-1.52
2019-01-25T17:20:40.458Z,-4.30
2019-01-25T17:23:09.809Z,-1.55
2019-01-25T17:25:39.056Z,-1.57
2019-01-25T17:28:10.278Z,-1.59
2019-01-25T17:30:40.498Z,-1.61
2019-01-25T17:33:09.713Z,-1.64
2019-01-25T17:35:38.943Z,-1.64
2019-01-25T17:38:09.341Z,-1.66
2019-01-25T17:40:46.345Z,-1.65
2019-01-25T17:43:12.200Z,-1.62
2019-01-25T17:45:41.484Z,-1.61
2019-01-25T17:48:10.695Z,-1.61
2019-01-25T17:50:39.925Z,-1.62
2019-01-25T17:53:09.286Z,-1.67
2019-01-25T17:55:38.493Z,-1.69
2019-01-25T17:58:08.461Z,-1.75
2019-01-25T18:00:45.454Z,-1.76
2019-01-25T18:03:14.829Z,-1.76
2019-01-25T18:05:44.653Z,-1.79
2019-01-25T18:08:13.915Z,-1.83
2019-01-25T18:10:43.166Z,-1.84
2019-01-25T18:13:12.404Z,-1.87
2019-01-25T18:15:41.632Z,-1.85
2019-01-25T18:18:10.997Z,-1.87
2019-01-25T18:20:40.193Z,-1.86
2019-01-25T18:23:10.596Z,-1.86
2019-01-25T18:25:43.055Z,-1.87
2019-01-25T18:28:15.962Z,-1.88
2019-01-25T18:30:49.249Z,-1.87
2019-01-25T18:33:18.539Z,-1.89
2019-01-25T18:35:47.883Z,-1.92
2019-01-25T18:38:17.551Z,-1.93
2019-01-25T18:40:46.791Z,-1.93
2019-01-25T18:43:17.555Z,-1.92
2019-01-25T18:45:49.084Z,-1.94
2019-01-25T18:48:18.285Z,-1.97
2019-01-25T18:50:47.542Z,-1.99
2019-01-25T18:53:16.755Z,-2.00
2019-01-25T18:55:46.043Z,-1.98
2019-01-25T18:58:15.413Z,-1.99
2019-01-25T19:00:44.622Z,-1.98
2019-01-25T19:03:13.847Z,-1.99
2019-01-25T19:05:45.259Z,-1.99
2019-01-25T19:08:14.491Z,-2.01
2019-01-25T19:10:43.729Z,-2.01
2019-01-25T19:13:13.093Z,-2.82
2019-01-25T19:15:42.357Z,-2.00
2019-01-25T19:18:11.514Z,-1.99
2019-01-25T19:20:40.771Z,-1.98
2019-01-25T19:23:09.996Z,-1.99
2019-01-25T19:25:39.231Z,-2.00
2019-01-25T19:28:11.382Z,-2.17
2019-01-25T19:30:44.310Z,-2.01
2019-01-25T19:33:13.800Z,-2.04
2019-01-25T19:35:43.466Z,-2.08
2019-01-25T19:38:14.756Z,-2.12
2019-01-25T19:40:45.192Z,-2.15
2019-01-25T19:43:14.504Z,-2.18
2019-01-25T19:45:45.322Z,-2.21
2019-01-25T19:48:16.916Z,-2.21
2019-01-25T19:50:46.179Z,-2.25
2019-01-25T19:53:15.477Z,-2.26
2019-01-25T19:55:44.786Z,-2.27
2019-01-25T19:58:16.690Z,-2.25
2019-01-25T20:00:46.369Z,-2.24
2019-01-25T20:03:16.000Z,-2.24
2019-01-25T20:05:45.746Z,-2.26
2019-01-25T20:08:15.095Z,-2.31
2019-01-25T20:10:44.341Z,-2.35
2019-01-25T20:13:14.385Z,-2.39
2019-01-25T20:15:43.586Z,-2.42
2019-01-25T20:18:12.821Z,-2.40
2019-01-25T20:20:42.343Z,-2.42
2019-01-25T20:23:11.982Z,-2.41
2019-01-25T20:25:41.278Z,-2.40
2019-01-25T20:28:11.989Z,-2.38
2019-01-25T20:30:49.569Z,-2.36
2019-01-25T20:33:15.057Z,-2.33
2019-01-25T20:35:44.287Z,-2.32
2019-01-25T20:38:13.790Z,-2.30
2019-01-25T20:40:43.051Z,-2.30
2019-01-25T20:43:13.155Z,-2.33
2019-01-25T20:45:42.637Z,-2.34
2019-01-25T20:48:11.922Z,-2.34
2019-01-25T20:50:43.172Z,-2.36
2019-01-25T20:53:12.917Z,-2.39
2019-01-25T20:55:42.210Z,-2.41
2019-01-25T20:58:11.493Z,-2.43
2019-01-25T21:00:41.266Z,-2.44
2019-01-25T21:03:13.197Z,-2.47
2019-01-25T21:05:42.500Z,-2.53
2019-01-25T21:08:12.004Z,-2.68
2019-01-25T21:10:41.382Z,-2.54
2019-01-25T21:13:10.712Z,-2.55
2019-01-25T21:15:40.646Z,-2.59
2019-01-25T21:18:10.097Z,-2.64
2019-01-25T21:20:41.841Z,-2.68
2019-01-25T21:23:11.231Z,-2.69
2019-01-25T21:25:40.929Z,-2.68
2019-01-25T21:28:10.428Z,-2.68
2019-01-25T21:30:40.904Z,-2.67
2019-01-25T21:33:12.341Z,-2.67
2019-01-25T21:35:41.565Z,-2.66
2019-01-25T21:38:13.129Z,-2.65
2019-01-25T21:40:42.863Z,-2.64
2019-01-25T21:43:12.569Z,-2.63
2019-01-25T21:45:43.616Z,-2.66
2019-01-25T21:48:15.614Z,-2.68
2019-01-25T21:50:45.676Z,-2.67
2019-01-25T21:53:17.403Z,-2.70
2019-01-25T21:55:49.001Z,-3.81
2019-01-25T21:58:18.296Z,-2.74
2019-01-25T22:00:47.601Z,-2.77
2019-01-25T22:03:16.756Z,-2.81
2019-01-25T22:05:46.013Z,-2.87
2019-01-25T22:08:15.288Z,-2.91
2019-01-25T22:10:50.132Z,-2.97
2019-01-25T22:13:21.580Z,-3.01
2019-01-25T22:15:51.338Z,-3.04
2019-01-25T22:18:21.025Z,-3.06
2019-01-25T22:20:50.274Z,-3.09
2019-01-25T22:23:19.579Z,-3.09
2019-01-25T22:25:48.780Z,-3.05
2019-01-25T22:28:18.029Z,-3.02
2019-01-25T22:30:47.229Z,-3.02
2019-01-25T22:33:16.474Z,-3.02
2019-01-25T22:35:45.715Z,-3.01
2019-01-25T22:38:15.065Z,-2.97
2019-01-25T22:40:44.333Z,-2.95
2019-01-25T22:43:13.532Z,-2.92
2019-01-25T22:45:42.741Z,-2.91
2019-01-25T22:48:13.152Z,-2.90
2019-01-25T22:50:42.352Z,-2.88
2019-01-25T22:53:11.570Z,-2.86
2019-01-25T22:55:40.874Z,-2.82
2019-01-25T22:58:10.152Z,-2.79
2019-01-25T23:01:09.949Z,-2.75
2019-01-25T23:04:09.064Z,-2.75
2019-01-25T23:06:44.953Z,-2.73
2019-01-25T23:09:21.225Z,-2.71
2019-01-25T23:11:50.810Z,-2.69
2019-01-25T23:14:20.183Z,-2.69
2019-01-25T23:16:49.684Z,-2.70
2019-01-25T23:19:20.244Z,-2.72
2019-01-25T23:21:50.360Z,-2.72
2019-01-25T23:24:19.640Z,-2.70
2019-01-25T23:26:48.878Z,-2.69
2019-01-25T23:29:18.084Z,-2.70
2019-01-25T23:31:49.834Z,-2.71
2019-01-25T23:34:19.064Z,-2.92
2019-01-25T23:36:48.267Z,-2.73
2019-01-25T23:39:17.492Z,-2.72
2019-01-25T23:41:49.035Z,-2.73
2019-01-25T23:44:20.367Z,-2.72
2019-01-25T23:46:49.415Z,-2.72
2019-01-25T23:49:18.888Z,-2.72
2019-01-25T23:51:49.470Z,-2.72
2019-01-25T23:54:20.342Z,-2.71
2019-01-25T23:56:49.644Z,-2.70
2019-01-25T23:59:18.861Z,-2.69
